createdAt,value
2023-03-21T00:01:55.336Z,40.42
2023-03-21T00:04:23.619Z,36.45
2023-03-21T00:06:51.691Z,39.80
2023-03-21T00:09:19.085Z,38.65
2023-03-21T00:11:46.609Z,44.58
2023-03-21T00:14:15.970Z,42.92
2023-03-21T00:16:45.790Z,37.78
2023-03-21T00:19:14.616Z,40.65
2023-03-21T00:22:05.973Z,38.20
2023-03-21T00:24:30.835Z,39.27
2023-03-21T00:27:15.884Z,44.58
2023-03-21T00:29:45.549Z,42.15
2023-03-21T00:32:12.958Z,40.63
2023-03-21T00:34:48.473Z,38.03
2023-03-21T00:37:21.731Z,43.92
2023-03-21T00:39:49.427Z,45.58
2023-03-21T00:42:17.221Z,40.58
2023-03-21T00:44:45.489Z,47.13
2023-03-21T00:47:13.507Z,49.53
2023-03-21T00:49:40.930Z,45.30
2023-03-21T00:52:18.351Z,45.08
2023-03-21T00:54:51.885Z,47.20
2023-03-21T00:57:22.052Z,43.78
2023-03-21T00:59:51.816Z,47.45
2023-03-21T01:02:23.042Z,51.97
2023-03-21T01:04:50.625Z,49.50
2023-03-21T01:07:17.942Z,55.65
2023-03-21T01:09:45.245Z,53.35
2023-03-21T01:12:12.550Z,50.33
2023-03-21T01:14:39.822Z,58.08
2023-03-21T01:17:07.382Z,60.75
2023-03-21T01:19:50.564Z,52.55
2023-03-21T01:22:18.845Z,53.63
2023-03-21T01:24:55.131Z,57.42
2023-03-21T01:27:25.874Z,55.45
2023-03-21T01:29:53.292Z,58.60
2023-03-21T01:32:20.818Z,56.58
2023-03-21T01:34:48.179Z,61.10
2023-03-21T01:37:17.814Z,55.78
2023-03-21T01:39:48.658Z,53.60
2023-03-21T01:42:16.124Z,51.30
2023-03-21T01:44:57.268Z,51.67
2023-03-21T01:47:27.046Z,50.17
2023-03-21T01:50:06.250Z,49.83
2023-03-21T01:52:53.844Z,55.38
2023-03-21T01:55:28.280Z,54.20
2023-03-21T01:58:28.236Z,54.30
2023-03-21T02:01:25.097Z,51.55
2023-03-21T02:03:57.043Z,51.17
2023-03-21T02:06:49.725Z,55.13
2023-03-21T02:09:33.583Z,57.75
2023-03-21T02:12:02.316Z,51.42
2023-03-21T02:14:32.928Z,55.95
2023-03-21T02:17:22.313Z,54.78
2023-03-21T02:20:11.756Z,53.30
2023-03-21T02:22:58.658Z,61.30
2023-03-21T02:25:38.459Z,52.78
2023-03-21T02:28:24.906Z,60.10
2023-03-21T02:31:08.041Z,60.22
2023-03-21T02:34:00.903Z,66.47
2023-03-21T02:36:34.427Z,57.05
2023-03-21T02:39:08.075Z,63.05
2023-03-21T02:41:44.691Z,59.85
2023-03-21T02:44:20.644Z,64.28
2023-03-21T02:46:59.682Z,66.88
2023-03-21T02:49:36.658Z,65.82
2023-03-21T02:52:15.537Z,64.15
2023-03-21T02:54:48.971Z,61.33
2023-03-21T02:57:22.876Z,59.95
2023-03-21T02:59:55.738Z,56.03
2023-03-21T03:05:00.590Z,59.50
2023-03-21T03:07:43.050Z,57.97
2023-03-21T03:10:21.864Z,58.22
2023-03-21T03:13:04.567Z,51.53
2023-03-21T03:15:33.442Z,56.22
2023-03-21T03:18:12.194Z,48.38
2023-03-21T03:20:47.090Z,52.17
2023-03-21T03:23:14.465Z,48.47
2023-03-21T03:25:49.904Z,46.53
2023-03-21T03:28:21.320Z,41.58
2023-03-21T03:31:07.143Z,42.22
2023-03-21T03:33:43.535Z,33.38
2023-03-21T03:36:18.761Z,44.90
2023-03-21T03:38:53.004Z,40.50
2023-03-21T03:41:25.653Z,40.67
2023-03-21T03:43:59.654Z,41.15
2023-03-21T03:46:52.215Z,45.63
2023-03-21T03:49:25.945Z,41.30
2023-03-21T03:51:58.714Z,40.58
2023-03-21T03:54:33.653Z,45.08
2023-03-21T03:57:04.486Z,39.30
2023-03-21T03:59:31.881Z,42.75
2023-03-21T04:02:11.615Z,40.63
2023-03-21T04:04:41.538Z,41.88
2023-03-21T04:07:09.142Z,42.15
2023-03-21T04:12:14.944Z,40.40
2023-03-21T04:14:53.296Z,38.42
2023-03-21T04:17:22.937Z,34.80
2023-03-21T04:19:55.513Z,38.70
2023-03-21T04:22:25.736Z,34.30
2023-03-21T04:24:53.489Z,36.67
2023-03-21T04:27:20.906Z,38.17
2023-03-21T04:30:06.073Z,38.75
2023-03-21T04:32:53.895Z,35.05
2023-03-21T04:35:21.728Z,37.20
2023-03-21T04:37:49.674Z,36.10
2023-03-21T04:40:18.940Z,33.85
2023-03-21T04:42:47.530Z,42.28
2023-03-21T04:45:15.924Z,37.42
2023-03-21T04:47:47.821Z,38.47
2023-03-21T04:50:16.682Z,42.15
2023-03-21T04:52:46.077Z,39.20
2023-03-21T04:55:14.722Z,33.47
2023-03-21T04:57:42.051Z,36.78
2023-03-21T05:00:16.355Z,35.47
2023-03-21T05:02:43.957Z,47.53
2023-03-21T05:05:12.143Z,41.38
2023-03-21T05:07:40.500Z,41.20
2023-03-21T05:10:09.204Z,47.13
2023-03-21T05:12:37.507Z,38.67
2023-03-21T05:15:06.517Z,46.60
2023-03-21T05:17:33.843Z,40.30
2023-03-21T05:20:01.394Z,41.40
2023-03-21T05:22:29.168Z,41.05
2023-03-21T05:24:58.230Z,47.03
2023-03-21T05:27:36.201Z,42.45
2023-03-21T05:30:10.751Z,41.28
2023-03-21T05:32:38.375Z,50.20
2023-03-21T05:35:09.418Z,45.05
2023-03-21T05:37:38.356Z,47.50
2023-03-21T05:40:07.508Z,48.95
2023-03-21T05:45:12.128Z,48.47
2023-03-21T05:47:40.285Z,43.78
2023-03-21T05:50:08.650Z,54.37
2023-03-21T05:52:36.939Z,53.87
2023-03-21T05:55:11.859Z,56.75
2023-03-21T05:57:40.917Z,53.72
2023-03-21T06:00:13.908Z,56.85
2023-03-21T06:02:44.241Z,66.78
2023-03-21T06:05:34.795Z,50.60
2023-03-21T06:08:02.207Z,51.85
2023-03-21T06:10:30.444Z,59.83
2023-03-21T06:12:58.975Z,50.40
2023-03-21T06:15:33.378Z,52.58
2023-03-21T06:18:15.751Z,59.67
2023-03-21T06:20:54.794Z,52.93
2023-03-21T06:23:22.300Z,50.28
2023-03-21T06:25:50.427Z,54.88
2023-03-21T06:28:17.986Z,57.88
2023-03-21T06:30:45.475Z,50.80
2023-03-21T06:33:25.473Z,62.42
2023-03-21T06:35:53.840Z,56.67
2023-03-21T06:40:49.665Z,54.97
2023-03-21T06:43:17.677Z,56.30
2023-03-21T06:45:46.487Z,58.88
2023-03-21T06:48:13.844Z,53.13
2023-03-21T06:50:51.828Z,51.08
2023-03-21T06:53:21.189Z,58.42
2023-03-21T06:56:15.079Z,54.90
2023-03-21T06:58:43.530Z,55.15
2023-03-21T07:01:19.573Z,55.03
2023-03-21T07:04:00.683Z,54.60
2023-03-21T07:06:30.287Z,53.60
2023-03-21T07:08:58.067Z,52.30
2023-03-21T07:11:26.238Z,54.25
2023-03-21T07:13:53.784Z,47.75
2023-03-21T07:16:21.812Z,48.00
2023-03-21T07:18:49.387Z,46.75
2023-03-21T07:21:16.736Z,44.42
2023-03-21T07:23:44.783Z,46.72
2023-03-21T07:26:12.156Z,52.65
2023-03-21T07:28:40.005Z,44.47
2023-03-21T07:31:08.455Z,41.00
2023-03-21T07:33:36.716Z,54.37
2023-03-21T07:36:04.393Z,43.13
2023-03-21T07:38:31.822Z,40.80
2023-03-21T07:41:00.371Z,44.60
2023-03-21T07:43:31.238Z,39.20
2023-03-21T07:45:59.722Z,44.73
2023-03-21T07:48:27.570Z,40.03
2023-03-21T07:50:54.895Z,38.83
2023-03-21T07:53:22.623Z,41.70
2023-03-21T07:55:55.672Z,43.55
2023-03-21T07:58:23.816Z,39.55
2023-03-21T08:00:51.950Z,46.03
2023-03-21T08:03:19.538Z,37.10
2023-03-21T08:05:47.044Z,40.33
2023-03-21T08:08:14.405Z,39.38
2023-03-21T08:10:44.365Z,45.80
2023-03-21T08:13:13.676Z,40.80
2023-03-21T08:15:42.345Z,38.58
2023-03-21T08:18:10.089Z,46.65
2023-03-21T08:20:37.432Z,38.08
2023-03-21T08:23:04.904Z,39.88
2023-03-21T08:25:32.784Z,46.67
2023-03-21T08:28:00.334Z,39.17
2023-03-21T08:30:29.570Z,39.85
2023-03-21T08:35:28.125Z,32.70
2023-03-21T08:37:55.464Z,41.80
2023-03-21T08:40:22.800Z,40.88
2023-03-21T08:42:50.312Z,35.58
2023-03-21T08:45:18.610Z,44.33
2023-03-21T08:47:46.338Z,38.47
2023-03-21T08:50:15.579Z,35.47
2023-03-21T08:52:42.948Z,37.65
2023-03-21T08:55:10.767Z,36.28
2023-03-21T08:57:38.173Z,39.85
2023-03-21T09:00:17.137Z,43.08
2023-03-21T09:02:52.396Z,41.60
2023-03-21T09:05:20.338Z,33.92
2023-03-21T09:07:49.646Z,117.03
2023-03-21T09:12:51.084Z,31.95
2023-03-21T09:15:20.476Z,33.70
2023-03-21T09:17:52.449Z,37.90
2023-03-21T09:20:22.644Z,34.75
2023-03-21T09:22:51.973Z,31.33
2023-03-21T09:27:46.782Z,33.38
2023-03-21T09:30:16.102Z,37.53
2023-03-21T09:35:19.681Z,32.53
2023-03-21T09:37:48.350Z,37.13
2023-03-21T09:40:25.602Z,30.40
2023-03-21T09:43:16.378Z,29.38
2023-03-21T09:45:52.602Z,30.25
2023-03-21T09:48:56.818Z,30.67
2023-03-21T09:51:27.173Z,32.42
2023-03-21T09:53:57.262Z,32.63
2023-03-21T09:56:26.184Z,34.92
2023-03-21T09:58:56.269Z,45.30
2023-03-21T10:01:32.892Z,38.15
2023-03-21T10:04:06.457Z,37.22
2023-03-21T10:06:39.216Z,31.42
2023-03-21T10:09:15.180Z,25.60
2023-03-21T10:11:48.694Z,31.40
2023-03-21T10:14:22.048Z,29.15
2023-03-21T10:16:50.408Z,28.98
2023-03-21T10:19:19.440Z,35.97
2023-03-21T10:22:00.329Z,24.95
2023-03-21T10:24:29.330Z,30.73
2023-03-21T10:26:57.166Z,32.13
2023-03-21T10:29:27.584Z,30.15
2023-03-21T10:31:55.875Z,35.03
2023-03-21T10:34:31.890Z,39.05
2023-03-21T10:37:00.270Z,26.33
2023-03-21T10:39:33.767Z,26.23
2023-03-21T10:42:01.491Z,24.95
2023-03-21T10:44:32.796Z,34.20
2023-03-21T10:47:05.096Z,28.80
2023-03-21T10:49:40.162Z,28.65
2023-03-21T10:52:11.288Z,31.30
2023-03-21T10:54:38.624Z,28.75
2023-03-21T10:57:09.463Z,27.17
2023-03-21T10:59:49.083Z,35.85
2023-03-21T11:02:27.324Z,26.92
2023-03-21T11:04:55.799Z,25.57
2023-03-21T11:07:25.999Z,38.42
2023-03-21T11:09:58.217Z,30.92
2023-03-21T11:12:31.636Z,29.30
2023-03-21T11:14:59.018Z,31.70
2023-03-21T11:17:31.261Z,32.17
2023-03-21T11:20:00.321Z,34.13
2023-03-21T11:22:31.975Z,40.30
2023-03-21T11:25:00.716Z,30.23
2023-03-21T11:27:31.962Z,25.88
2023-03-21T11:30:00.992Z,26.70
2023-03-21T11:32:36.182Z,25.52
2023-03-21T11:35:06.669Z,25.05
2023-03-21T11:37:47.740Z,20.77
2023-03-21T11:40:23.949Z,25.60
2023-03-21T11:42:52.478Z,24.83
2023-03-21T11:45:21.858Z,23.60
2023-03-21T11:47:50.719Z,35.22
2023-03-21T11:50:28.882Z,36.58
2023-03-21T11:53:08.363Z,31.75
2023-03-21T11:55:54.559Z,30.30
2023-03-21T11:58:40.957Z,28.27
2023-03-21T12:01:14.736Z,27.67
2023-03-21T12:03:52.605Z,26.58
2023-03-21T12:06:41.656Z,21.08
2023-03-21T12:09:08.968Z,21.90
2023-03-21T12:11:45.408Z,23.65
2023-03-21T12:14:12.730Z,26.08
2023-03-21T12:16:57.227Z,21.80
2023-03-21T12:19:43.470Z,18.65
2023-03-21T12:22:22.202Z,23.02
2023-03-21T12:24:57.731Z,21.35
2023-03-21T12:27:41.880Z,23.17
2023-03-21T12:30:28.219Z,32.53
2023-03-21T12:32:55.614Z,26.20
2023-03-21T12:35:28.893Z,20.90
2023-03-21T12:38:05.674Z,25.45
2023-03-21T12:40:39.154Z,21.98
2023-03-21T12:43:18.588Z,29.25
2023-03-21T12:45:49.650Z,20.67
2023-03-21T12:48:28.803Z,24.05
2023-03-21T12:50:57.214Z,22.48
2023-03-21T12:53:31.085Z,17.87
2023-03-21T12:56:02.541Z,22.30
2023-03-21T12:58:31.827Z,25.00
2023-03-21T13:01:03.524Z,25.48
2023-03-21T13:03:40.544Z,24.20
2023-03-21T13:06:10.235Z,18.65
2023-03-21T13:08:44.519Z,22.45
2023-03-21T13:11:14.400Z,19.27
2023-03-21T13:13:53.434Z,21.23
2023-03-21T13:16:36.646Z,16.13
2023-03-21T13:19:10.370Z,19.98
2023-03-21T13:21:58.134Z,21.38
2023-03-21T13:24:25.587Z,19.02
2023-03-21T13:27:00.750Z,19.35
2023-03-21T13:29:30.860Z,17.60
2023-03-21T13:32:05.771Z,18.40
2023-03-21T13:34:33.201Z,19.80
2023-03-21T13:37:01.923Z,20.52
2023-03-21T13:39:31.150Z,20.25
2023-03-21T13:44:52.130Z,20.55
2023-03-21T13:47:31.712Z,19.13
2023-03-21T13:50:17.905Z,15.73
2023-03-21T13:53:05.502Z,17.77
2023-03-21T13:55:38.246Z,17.23
2023-03-21T13:58:26.046Z,19.38
2023-03-21T14:01:12.399Z,17.52
2023-03-21T14:03:40.752Z,20.90
2023-03-21T14:06:09.577Z,18.93
2023-03-21T14:08:37.958Z,16.45
2023-03-21T14:11:07.869Z,16.80
2023-03-21T14:13:48.389Z,16.50
2023-03-21T14:16:18.109Z,14.85
2023-03-21T14:18:54.089Z,15.70
2023-03-21T14:21:25.070Z,16.92
2023-03-21T14:24:00.283Z,15.88
2023-03-21T14:26:30.394Z,16.63
2023-03-21T14:28:57.787Z,16.95
2023-03-21T14:31:26.672Z,19.05
2023-03-21T14:33:56.596Z,16.90
2023-03-21T14:36:28.686Z,18.67
2023-03-21T14:39:19.126Z,15.15
2023-03-21T14:41:50.974Z,13.32
2023-03-21T14:44:25.410Z,16.30
2023-03-21T14:47:06.718Z,21.17
2023-03-21T14:49:38.776Z,14.32
2023-03-21T14:52:08.741Z,20.42
2023-03-21T14:54:38.221Z,16.65
2023-03-21T14:57:08.686Z,19.00
2023-03-21T14:59:37.661Z,14.82
2023-03-21T15:02:17.284Z,14.93
2023-03-21T15:04:46.399Z,15.82
2023-03-21T15:07:24.939Z,15.68
2023-03-21T15:10:00.997Z,20.50
2023-03-21T15:12:28.367Z,14.00
2023-03-21T15:14:56.185Z,16.63
2023-03-21T15:17:24.402Z,16.42
2023-03-21T15:19:51.690Z,21.20
2023-03-21T15:22:33.965Z,17.42
2023-03-21T15:25:03.733Z,16.40
2023-03-21T15:27:33.246Z,19.92
2023-03-21T15:30:00.641Z,16.70
2023-03-21T15:32:28.624Z,15.70
2023-03-21T15:34:57.429Z,15.80
2023-03-21T15:37:27.457Z,17.63
2023-03-21T15:40:09.475Z,15.50
2023-03-21T15:42:40.877Z,13.20
2023-03-21T15:45:29.197Z,13.52
2023-03-21T15:48:01.529Z,11.52
2023-03-21T15:50:55.211Z,10.70
2023-03-21T15:53:24.050Z,10.38
2023-03-21T15:55:52.668Z,7.90
2023-03-21T15:58:22.204Z,9.55
2023-03-21T16:00:54.423Z,9.25
2023-03-21T16:03:28.085Z,11.43
2023-03-21T16:06:05.766Z,14.40
2023-03-21T16:08:35.809Z,11.98
2023-03-21T16:11:21.964Z,18.90
2023-03-21T16:13:49.672Z,10.13
2023-03-21T16:16:35.824Z,12.30
2023-03-21T16:19:03.898Z,11.85
2023-03-21T16:21:33.958Z,11.93
2023-03-21T16:24:02.264Z,10.80
2023-03-21T16:26:31.428Z,14.73
2023-03-21T16:28:59.068Z,17.17
2023-03-21T16:31:27.951Z,14.05
2023-03-21T16:33:55.886Z,14.68
2023-03-21T16:36:30.728Z,17.08
2023-03-21T16:38:58.864Z,11.05
2023-03-21T16:41:27.241Z,11.13
2023-03-21T16:43:55.057Z,13.13
2023-03-21T16:46:23.705Z,13.38
2023-03-21T16:48:52.243Z,9.48
2023-03-21T16:53:49.842Z,11.70
2023-03-21T16:56:40.763Z,10.10
2023-03-21T16:59:08.102Z,8.93
2023-03-21T17:01:38.448Z,8.75
2023-03-21T17:04:05.823Z,8.80
2023-03-21T17:06:33.785Z,8.98
2023-03-21T17:09:01.692Z,7.53
2023-03-21T17:11:33.933Z,11.98
2023-03-21T17:14:02.636Z,11.25
2023-03-21T17:16:30.051Z,13.48
2023-03-21T17:18:57.731Z,11.73
2023-03-21T17:21:27.362Z,11.13
2023-03-21T17:23:54.835Z,11.63
2023-03-21T17:26:26.767Z,11.75
2023-03-21T17:28:55.599Z,9.88
2023-03-21T17:31:24.012Z,13.73
2023-03-21T17:33:51.712Z,10.00
2023-03-21T17:36:27.150Z,12.40
2023-03-21T17:38:55.421Z,10.13
2023-03-21T17:41:23.173Z,8.98
2023-03-21T17:43:51.708Z,10.40
2023-03-21T17:46:23.275Z,9.30
2023-03-21T17:48:50.654Z,9.82
2023-03-21T17:51:18.448Z,9.65
2023-03-21T17:53:46.776Z,6.07
2023-03-21T17:56:15.734Z,4.07
2023-03-21T17:58:43.339Z,6.30
2023-03-21T18:01:11.120Z,7.40
2023-03-21T18:03:38.514Z,6.13
2023-03-21T18:06:06.541Z,6.05
2023-03-21T18:08:34.055Z,8.27
2023-03-21T18:11:01.697Z,12.32
2023-03-21T18:13:29.112Z,4.88
2023-03-21T18:15:56.737Z,8.88
2023-03-21T18:18:24.146Z,5.53
2023-03-21T18:20:53.953Z,4.50
2023-03-21T18:23:22.081Z,6.93
2023-03-21T18:25:51.783Z,6.05
2023-03-21T18:28:21.233Z,5.95
2023-03-21T18:31:07.884Z,6.40
2023-03-21T18:33:40.610Z,8.20
2023-03-21T18:36:13.952Z,6.45
2023-03-21T18:38:42.106Z,10.05
2023-03-21T18:41:09.514Z,14.25
2023-03-21T18:44:02.756Z,9.57
2023-03-21T18:46:25.116Z,5.07
2023-03-21T18:48:52.716Z,7.15
2023-03-21T18:51:20.231Z,11.15
2023-03-21T18:53:47.579Z,10.55
2023-03-21T18:56:57.679Z,4.15
2023-03-21T18:59:03.077Z,8.27
2023-03-21T19:01:30.478Z,9.02
2023-03-21T19:04:19.996Z,7.15
2023-03-21T19:06:47.963Z,8.63
2023-03-21T19:09:18.099Z,9.68
2023-03-21T19:11:46.144Z,12.00
2023-03-21T19:14:15.065Z,10.77
2023-03-21T19:17:14.960Z,7.78
2023-03-21T19:19:30.212Z,9.88
2023-03-21T19:21:57.570Z,9.55
2023-03-21T19:24:28.386Z,7.97
2023-03-21T19:26:56.391Z,7.80
2023-03-21T19:29:23.843Z,13.57
2023-03-21T19:31:51.694Z,12.15
2023-03-21T19:34:19.505Z,15.13
2023-03-21T19:36:51.419Z,10.25
2023-03-21T19:39:22.233Z,14.93
2023-03-21T19:41:50.186Z,16.00
2023-03-21T19:44:17.666Z,12.05
2023-03-21T19:46:45.271Z,11.10
2023-03-21T19:49:12.836Z,10.40
2023-03-21T19:51:40.780Z,13.85
2023-03-21T19:54:08.340Z,20.88
2023-03-21T19:56:37.663Z,7.82
2023-03-21T19:59:05.248Z,12.82
2023-03-21T20:01:32.629Z,12.07
2023-03-21T20:04:00.635Z,18.55
2023-03-21T20:06:28.041Z,18.30
2023-03-21T20:11:43.784Z,13.45
2023-03-21T20:14:11.356Z,9.57
2023-03-21T20:16:38.780Z,11.00
2023-03-21T20:19:09.096Z,17.10
2023-03-21T20:21:48.193Z,16.15
2023-03-21T20:24:17.784Z,15.98
2023-03-21T20:26:46.518Z,9.95
2023-03-21T20:30:07.420Z,12.43
2023-03-21T20:32:01.472Z,19.38
2023-03-21T20:34:30.432Z,18.13
2023-03-21T20:36:58.428Z,19.25
2023-03-21T20:39:28.554Z,14.80
2023-03-21T20:41:58.938Z,14.07
2023-03-21T20:44:57.304Z,16.15
2023-03-21T20:47:14.537Z,13.35
2023-03-21T20:49:42.230Z,16.05
2023-03-21T20:55:00.386Z,13.20
2023-03-21T20:57:28.366Z,12.70
2023-03-21T20:59:56.025Z,10.82
2023-03-21T21:02:23.735Z,11.88
2023-03-21T21:05:21.890Z,11.07
2023-03-21T21:07:41.634Z,13.90
2023-03-21T21:10:11.485Z,14.87
2023-03-21T21:12:40.221Z,11.27
2023-03-21T21:15:08.389Z,13.25
2023-03-21T21:20:23.518Z,11.38
2023-03-21T21:23:00.140Z,11.00
2023-03-21T21:25:28.920Z,11.57
2023-03-21T21:27:56.631Z,11.45
2023-03-21T21:30:24.312Z,9.98
2023-03-21T21:32:51.750Z,10.57
2023-03-21T21:35:20.617Z,10.88
2023-03-21T21:37:47.997Z,11.23
2023-03-21T21:40:20.495Z,7.68
2023-03-21T21:42:48.262Z,8.00
2023-03-21T21:45:16.190Z,11.38
2023-03-21T21:47:44.525Z,13.20
2023-03-21T21:50:12.291Z,9.23
2023-03-21T21:52:43.450Z,8.43
2023-03-21T21:55:10.846Z,10.18
2023-03-21T21:57:39.784Z,13.18
2023-03-21T22:00:12.974Z,9.45
2023-03-21T22:02:41.712Z,12.45
2023-03-21T22:05:09.651Z,7.60
2023-03-21T22:07:37.940Z,11.10
2023-03-21T22:10:05.553Z,9.63
2023-03-21T22:12:32.849Z,11.25
2023-03-21T22:15:00.472Z,10.25
2023-03-21T22:17:27.835Z,12.70
2023-03-21T22:20:05.248Z,8.25
2023-03-21T22:22:34.296Z,10.07
2023-03-21T22:25:01.729Z,10.10
2023-03-21T22:27:29.345Z,13.65
2023-03-21T22:29:56.881Z,7.47
2023-03-21T22:32:24.447Z,9.50
2023-03-21T22:34:51.981Z,11.77
2023-03-21T22:37:19.337Z,10.55
2023-03-21T22:39:46.974Z,8.98
2023-03-21T22:42:14.300Z,12.70
2023-03-21T22:44:41.960Z,9.45
2023-03-21T22:47:10.960Z,10.15
2023-03-21T22:49:39.210Z,9.57
2023-03-21T22:52:07.117Z,9.52
2023-03-21T22:54:34.380Z,12.52
2023-03-21T22:57:01.903Z,14.68
2023-03-21T22:59:29.962Z,7.75
2023-03-21T23:01:57.342Z,36.92
2023-03-21T23:04:26.141Z,11.35
2023-03-21T23:06:54.194Z,12.18
2023-03-21T23:09:21.475Z,10.75
2023-03-21T23:11:49.693Z,18.10
2023-03-21T23:14:20.100Z,11.57
2023-03-21T23:19:15.900Z,6.07
2023-03-21T23:21:44.394Z,12.27
2023-03-21T23:24:11.932Z,12.60
2023-03-21T23:26:39.821Z,9.63
2023-03-21T23:29:10.371Z,8.45
2023-03-21T23:31:37.798Z,8.57
2023-03-21T23:34:05.348Z,6.57
2023-03-21T23:36:32.902Z,11.30
2023-03-21T23:39:00.613Z,12.07
2023-03-21T23:41:27.914Z,11.00
2023-03-21T23:43:55.196Z,15.85
2023-03-21T23:46:22.605Z,9.38
2023-03-21T23:48:50.635Z,7.50
2023-03-21T23:51:18.311Z,12.88
2023-03-21T23:53:46.613Z,10.25
2023-03-21T23:56:18.406Z,9.43
2023-03-21T23:58:46.340Z,8.85
